sensor_id;sensor_type;location;lat;lon;timestamp;pressure;altitude;pressure_sealevel;temperature;humidity
4392;BME280;2210;51.938;8.488;2024-02-26T00:02:06;99038.38;;;3.70;100.00
4392;BME280;2210;51.938;8.488;2024-02-26T00:06:07;99045.44;;;3.90;100.00
4392;BME280;2210;51.938;8.488;2024-02-26T00:10:07;99046.41;;;3.65;100.00
4392;BME280;2210;51.938;8.488;2024-02-26T00:14:10;99043.22;;;3.50;100.00
4392;BME280;2210;51.938;8.488;2024-02-26T00:18:11;99042.09;;;3.58;100.00
4392;BME280;2210;51.938;8.488;2024-02-26T00:22:11;99041.03;;;3.77;100.00
4392;BME280;2210;51.938;8.488;2024-02-26T00:26:11;99046.50;;;3.89;100.00
4392;BME280;2210;51.938;8.488;2024-02-26T00:30:11;99053.63;;;3.90;100.00
4392;BME280;2210;51.938;8.488;2024-02-26T00:34:12;99050.66;;;3.92;100.00
4392;BME280;2210;51.938;8.488;2024-02-26T00:38:12;99051.72;;;3.91;100.00
4392;BME280;2210;51.938;8.488;2024-02-26T00:42:12;99045.91;;;3.87;100.00
4392;BME280;2210;51.938;8.488;2024-02-26T00:46:12;99043.28;;;3.80;100.00
4392;BME280;2210;51.938;8.488;2024-02-26T00:50:13;99039.13;;;3.78;100.00
4392;BME280;2210;51.938;8.488;2024-02-26T00:54:13;99031.53;;;3.80;100.00
4392;BME280;2210;51.938;8.488;2024-02-26T00:58:13;99029.59;;;3.68;100.00
4392;BME280;2210;51.938;8.488;2024-02-26T01:02:17;99018.69;;;3.68;100.00
4392;BME280;2210;51.938;8.488;2024-02-26T01:06:17;99022.28;;;3.81;100.00
4392;BME280;2210;51.938;8.488;2024-02-26T01:10:17;99021.00;;;3.83;100.00
4392;BME280;2210;51.938;8.488;2024-02-26T01:14:17;99020.63;;;3.80;100.00
4392;BME280;2210;51.938;8.488;2024-02-26T01:18:18;99016.41;;;3.84;100.00
4392;BME280;2210;51.938;8.488;2024-02-26T01:22:18;99012.34;;;3.86;100.00
4392;BME280;2210;51.938;8.488;2024-02-26T01:26:18;99017.13;;;3.91;100.00
4392;BME280;2210;51.938;8.488;2024-02-26T01:30:18;98999.00;;;3.97;100.00
4392;BME280;2210;51.938;8.488;2024-02-26T01:34:19;98994.66;;;4.08;100.00
4392;BME280;2210;51.938;8.488;2024-02-26T01:38:19;98993.75;;;4.14;100.00
4392;BME280;2210;51.938;8.488;2024-02-26T01:42:22;98985.66;;;4.19;100.00
4392;BME280;2210;51.938;8.488;2024-02-26T01:46:23;98988.56;;;4.36;100.00
4392;BME280;2210;51.938;8.488;2024-02-26T01:50:23;98977.06;;;4.46;99.55
4392;BME280;2210;51.938;8.488;2024-02-26T01:54:24;98975.78;;;4.60;98.57
4392;BME280;2210;51.938;8.488;2024-02-26T01:58:24;98977.78;;;4.77;96.38
4392;BME280;2210;51.938;8.488;2024-02-26T02:02:25;98979.81;;;4.69;96.71
4392;BME280;2210;51.938;8.488;2024-02-26T02:06:26;98988.59;;;4.71;97.21
4392;BME280;2210;51.938;8.488;2024-02-26T02:10:28;98991.06;;;4.61;98.01
4392;BME280;2210;51.938;8.488;2024-02-26T02:14:28;98990.50;;;4.71;97.76
4392;BME280;2210;51.938;8.488;2024-02-26T02:18:28;98995.22;;;4.76;96.77
4392;BME280;2210;51.938;8.488;2024-02-26T02:22:29;98996.09;;;4.76;96.68
4392;BME280;2210;51.938;8.488;2024-02-26T02:26:29;98999.38;;;4.66;97.71
4392;BME280;2210;51.938;8.488;2024-02-26T02:30:30;99007.56;;;4.66;97.95
4392;BME280;2210;51.938;8.488;2024-02-26T02:34:32;98999.63;;;4.65;98.52
4392;BME280;2210;51.938;8.488;2024-02-26T02:38:32;99004.72;;;4.73;97.66
4392;BME280;2210;51.938;8.488;2024-02-26T02:42:34;99008.66;;;4.77;97.16
4392;BME280;2210;51.938;8.488;2024-02-26T02:46:34;99009.50;;;4.78;97.92
4392;BME280;2210;51.938;8.488;2024-02-26T02:50:35;99005.22;;;4.82;97.32
4392;BME280;2210;51.938;8.488;2024-02-26T02:54:35;99005.56;;;4.85;96.80
4392;BME280;2210;51.938;8.488;2024-02-26T02:58:37;99014.84;;;4.84;96.94
4392;BME280;2210;51.938;8.488;2024-02-26T03:02:37;99008.53;;;4.84;97.26
4392;BME280;2210;51.938;8.488;2024-02-26T03:06:37;99016.13;;;4.82;97.13
4392;BME280;2210;51.938;8.488;2024-02-26T03:10:37;99009.59;;;4.83;97.25
4392;BME280;2210;51.938;8.488;2024-02-26T03:14:38;99013.50;;;4.87;96.75
4392;BME280;2210;51.938;8.488;2024-02-26T03:18:39;99021.25;;;4.90;96.14
4392;BME280;2210;51.938;8.488;2024-02-26T03:22:40;99017.09;;;4.87;96.03
4392;BME280;2210;51.938;8.488;2024-02-26T03:26:40;99015.66;;;4.85;96.92
4392;BME280;2210;51.938;8.488;2024-02-26T03:30:43;99019.44;;;4.84;97.07
4392;BME280;2210;51.938;8.488;2024-02-26T03:34:43;99016.38;;;4.92;95.63
4392;BME280;2210;51.938;8.488;2024-02-26T03:38:44;99015.06;;;5.06;94.38
4392;BME280;2210;51.938;8.488;2024-02-26T03:42:44;99025.13;;;5.18;92.47
4392;BME280;2210;51.938;8.488;2024-02-26T03:46:45;99023.69;;;5.27;91.13
4392;BME280;2210;51.938;8.488;2024-02-26T03:50:46;99023.81;;;5.32;90.49
4392;BME280;2210;51.938;8.488;2024-02-26T03:54:46;99023.34;;;5.23;91.14
4392;BME280;2210;51.938;8.488;2024-02-26T03:58:46;99038.56;;;5.19;91.55
4392;BME280;2210;51.938;8.488;2024-02-26T04:02:47;99036.44;;;5.21;91.67
4392;BME280;2210;51.938;8.488;2024-02-26T04:06:47;99041.88;;;5.21;91.43
4392;BME280;2210;51.938;8.488;2024-02-26T04:10:47;99044.88;;;5.20;90.90
4392;BME280;2210;51.938;8.488;2024-02-26T04:14:47;99047.72;;;5.25;91.54
4392;BME280;2210;51.938;8.488;2024-02-26T04:18:48;99054.00;;;5.26;91.33
4392;BME280;2210;51.938;8.488;2024-02-26T04:22:54;99050.66;;;5.23;91.64
4392;BME280;2210;51.938;8.488;2024-02-26T04:26:54;99055.31;;;5.23;90.99
4392;BME280;2210;51.938;8.488;2024-02-26T04:30:55;99061.97;;;5.27;90.98
4392;BME280;2210;51.938;8.488;2024-02-26T04:34:56;99062.09;;;5.20;91.23
4392;BME280;2210;51.938;8.488;2024-02-26T04:38:56;99066.25;;;5.23;90.36
4392;BME280;2210;51.938;8.488;2024-02-26T04:42:56;99060.78;;;5.23;90.96
4392;BME280;2210;51.938;8.488;2024-02-26T04:46:57;99063.75;;;5.21;90.67
4392;BME280;2210;51.938;8.488;2024-02-26T04:50:57;99071.22;;;5.26;91.46
4392;BME280;2210;51.938;8.488;2024-02-26T04:54:57;99059.22;;;5.27;91.93
4392;BME280;2210;51.938;8.488;2024-02-26T04:58:59;99058.75;;;5.30;90.79
4392;BME280;2210;51.938;8.488;2024-02-26T05:03:00;99069.31;;;5.38;89.82
4392;BME280;2210;51.938;8.488;2024-02-26T05:07:00;99070.50;;;5.43;88.52
4392;BME280;2210;51.938;8.488;2024-02-26T05:11:00;99072.41;;;5.42;89.08
4392;BME280;2210;51.938;8.488;2024-02-26T05:15:01;99089.16;;;5.46;88.53
4392;BME280;2210;51.938;8.488;2024-02-26T05:19:01;99077.84;;;5.54;88.59
4392;BME280;2210;51.938;8.488;2024-02-26T05:23:03;99074.06;;;5.55;86.17
4392;BME280;2210;51.938;8.488;2024-02-26T05:27:04;99085.44;;;5.52;86.90
4392;BME280;2210;51.938;8.488;2024-02-26T05:31:04;99076.78;;;5.55;86.08
4392;BME280;2210;51.938;8.488;2024-02-26T05:35:05;99089.84;;;5.53;86.55
4392;BME280;2210;51.938;8.488;2024-02-26T05:39:08;99088.78;;;5.54;86.75
4392;BME280;2210;51.938;8.488;2024-02-26T05:43:11;99093.06;;;5.50;87.10
4392;BME280;2210;51.938;8.488;2024-02-26T05:47:11;99083.81;;;5.51;87.14
4392;BME280;2210;51.938;8.488;2024-02-26T05:51:11;99088.44;;;5.50;87.46
4392;BME280;2210;51.938;8.488;2024-02-26T05:55:12;99089.84;;;5.53;86.85
4392;BME280;2210;51.938;8.488;2024-02-26T05:59:13;99097.56;;;5.56;86.57
4392;BME280;2210;51.938;8.488;2024-02-26T06:03:15;99108.03;;;5.59;85.89
4392;BME280;2210;51.938;8.488;2024-02-26T06:07:15;99112.91;;;5.57;85.86
4392;BME280;2210;51.938;8.488;2024-02-26T06:11:15;99104.25;;;5.48;87.81
4392;BME280;2210;51.938;8.488;2024-02-26T06:15:16;99092.97;;;5.45;87.89
4392;BME280;2210;51.938;8.488;2024-02-26T06:19:16;99094.75;;;5.51;87.15
4392;BME280;2210;51.938;8.488;2024-02-26T06:23:16;99093.56;;;5.47;88.45
4392;BME280;2210;51.938;8.488;2024-02-26T06:27:17;99102.94;;;5.51;87.79
4392;BME280;2210;51.938;8.488;2024-02-26T06:31:17;99100.91;;;5.58;87.41
4392;BME280;2210;51.938;8.488;2024-02-26T06:35:17;99102.56;;;5.59;87.15
4392;BME280;2210;51.938;8.488;2024-02-26T06:39:18;99100.09;;;5.57;88.09
4392;BME280;2210;51.938;8.488;2024-02-26T06:43:19;99100.41;;;5.61;87.75
4392;BME280;2210;51.938;8.488;2024-02-26T06:47:19;99093.66;;;5.52;88.61
4392;BME280;2210;51.938;8.488;2024-02-26T06:51:19;99099.72;;;5.42;89.63
4392;BME280;2210;51.938;8.488;2024-02-26T06:55:20;99104.13;;;5.43;89.73
4392;BME280;2210;51.938;8.488;2024-02-26T06:59:20;99108.78;;;5.43;90.48
4392;BME280;2210;51.938;8.488;2024-02-26T07:03:20;99106.50;;;5.39;90.32
4392;BME280;2210;51.938;8.488;2024-02-26T07:07:22;99111.38;;;5.37;90.79
4392;BME280;2210;51.938;8.488;2024-02-26T07:11:23;99114.38;;;5.36;91.21
4392;BME280;2210;51.938;8.488;2024-02-26T07:15:24;99111.25;;;5.32;92.00
4392;BME280;2210;51.938;8.488;2024-02-26T07:19:24;99113.38;;;5.30;92.41
4392;BME280;2210;51.938;8.488;2024-02-26T07:23:24;99116.13;;;5.30;92.17
4392;BME280;2210;51.938;8.488;2024-02-26T07:27:24;99127.91;;;5.31;93.13
4392;BME280;2210;51.938;8.488;2024-02-26T07:31:24;99133.13;;;5.32;93.67
4392;BME280;2210;51.938;8.488;2024-02-26T07:35:25;99129.09;;;5.35;93.15
4392;BME280;2210;51.938;8.488;2024-02-26T07:39:25;99128.97;;;5.42;92.90
4392;BME280;2210;51.938;8.488;2024-02-26T07:43:26;99131.47;;;5.43;92.72
4392;BME280;2210;51.938;8.488;2024-02-26T07:47:26;99137.63;;;5.50;91.82
4392;BME280;2210;51.938;8.488;2024-02-26T07:51:26;99137.16;;;5.53;91.54
4392;BME280;2210;51.938;8.488;2024-02-26T07:55:26;99145.84;;;5.62;90.24
4392;BME280;2210;51.938;8.488;2024-02-26T07:59:27;99153.53;;;5.65;90.68
4392;BME280;2210;51.938;8.488;2024-02-26T08:03:27;99163.41;;;5.66;90.82
4392;BME280;2210;51.938;8.488;2024-02-26T08:07:27;99172.31;;;5.73;90.42
4392;BME280;2210;51.938;8.488;2024-02-26T08:11:28;99183.50;;;5.84;89.36
4392;BME280;2210;51.938;8.488;2024-02-26T08:15:28;99183.13;;;5.92;88.33
4392;BME280;2210;51.938;8.488;2024-02-26T08:19:29;99188.72;;;5.97;88.85
4392;BME280;2210;51.938;8.488;2024-02-26T08:23:29;99191.81;;;6.01;88.04
4392;BME280;2210;51.938;8.488;2024-02-26T08:27:29;99201.69;;;6.02;89.04
4392;BME280;2210;51.938;8.488;2024-02-26T08:31:29;99210.25;;;6.05;88.56
4392;BME280;2210;51.938;8.488;2024-02-26T08:35:30;99214.19;;;6.10;89.23
4392;BME280;2210;51.938;8.488;2024-02-26T08:39:30;99215.59;;;6.12;89.59
4392;BME280;2210;51.938;8.488;2024-02-26T08:43:30;99222.50;;;6.15;90.68
4392;BME280;2210;51.938;8.488;2024-02-26T08:47:31;99222.59;;;6.20;89.82
4392;BME280;2210;51.938;8.488;2024-02-26T08:51:32;99226.53;;;6.24;89.59
4392;BME280;2210;51.938;8.488;2024-02-26T08:55:32;99228.78;;;6.27;90.67
4392;BME280;2210;51.938;8.488;2024-02-26T08:59:33;99232.94;;;6.30;90.06
4392;BME280;2210;51.938;8.488;2024-02-26T09:03:33;99238.88;;;6.38;90.99
4392;BME280;2210;51.938;8.488;2024-02-26T09:07:33;99239.47;;;6.40;90.90
4392;BME280;2210;51.938;8.488;2024-02-26T09:11:33;99249.78;;;6.50;90.45
4392;BME280;2210;51.938;8.488;2024-02-26T09:15:34;99242.88;;;6.60;90.09
4392;BME280;2210;51.938;8.488;2024-02-26T09:19:34;99241.06;;;6.65;89.12
4392;BME280;2210;51.938;8.488;2024-02-26T09:23:34;99241.84;;;6.78;90.09
4392;BME280;2210;51.938;8.488;2024-02-26T09:27:35;99238.59;;;6.81;88.79
4392;BME280;2210;51.938;8.488;2024-02-26T09:31:35;99246.69;;;6.87;88.97
4392;BME280;2210;51.938;8.488;2024-02-26T09:35:35;99246.03;;;6.97;89.44
4392;BME280;2210;51.938;8.488;2024-02-26T09:39:35;99237.91;;;7.02;87.98
4392;BME280;2210;51.938;8.488;2024-02-26T09:43:38;99244.16;;;7.15;87.29
4392;BME280;2210;51.938;8.488;2024-02-26T09:47:42;99243.53;;;7.24;85.20
4392;BME280;2210;51.938;8.488;2024-02-26T09:51:43;99249.53;;;7.38;85.36
4392;BME280;2210;51.938;8.488;2024-02-26T09:55:43;99244.44;;;7.47;85.00
4392;BME280;2210;51.938;8.488;2024-02-26T09:59:44;99248.13;;;7.53;83.32
4392;BME280;2210;51.938;8.488;2024-02-26T10:03:55;99254.03;;;7.62;84.00
4392;BME280;2210;51.938;8.488;2024-02-26T10:07:57;99268.09;;;7.65;83.91
4392;BME280;2210;51.938;8.488;2024-02-26T10:11:58;99277.47;;;7.69;84.18
4392;BME280;2210;51.938;8.488;2024-02-26T10:16:00;99274.13;;;7.67;84.38
4392;BME280;2210;51.938;8.488;2024-02-26T10:20:14;99277.47;;;7.69;84.12
4392;BME280;2210;51.938;8.488;2024-02-26T10:24:15;99274.88;;;7.80;83.78
4392;BME280;2210;51.938;8.488;2024-02-26T10:28:16;99286.97;;;7.79;83.20
4392;BME280;2210;51.938;8.488;2024-02-26T10:32:16;99289.34;;;7.75;82.80
4392;BME280;2210;51.938;8.488;2024-02-26T10:36:16;99282.84;;;7.81;82.83
4392;BME280;2210;51.938;8.488;2024-02-26T10:40:16;99287.59;;;7.86;82.88
4392;BME280;2210;51.938;8.488;2024-02-26T10:44:17;99300.31;;;7.92;84.40
4392;BME280;2210;51.938;8.488;2024-02-26T10:48:17;99300.91;;;7.94;83.86
4392;BME280;2210;51.938;8.488;2024-02-26T10:52:18;99300.91;;;7.94;81.85
4392;BME280;2210;51.938;8.488;2024-02-26T10:56:20;99317.28;;;8.06;82.32
4392;BME280;2210;51.938;8.488;2024-02-26T11:00:22;99314.03;;;8.09;81.54
4392;BME280;2210;51.938;8.488;2024-02-26T11:04:23;99317.13;;;8.13;82.01
4392;BME280;2210;51.938;8.488;2024-02-26T11:08:25;99322.84;;;8.11;80.76
4392;BME280;2210;51.938;8.488;2024-02-26T11:12:28;99316.94;;;8.02;81.84
4392;BME280;2210;51.938;8.488;2024-02-26T11:16:29;99326.09;;;8.08;82.36
4392;BME280;2210;51.938;8.488;2024-02-26T11:20:30;99327.13;;;8.02;81.08
4392;BME280;2210;51.938;8.488;2024-02-26T11:24:32;99332.81;;;8.00;81.96
4392;BME280;2210;51.938;8.488;2024-02-26T11:28:34;99333.94;;;7.99;82.74
4392;BME280;2210;51.938;8.488;2024-02-26T11:32:35;99332.19;;;8.10;83.04
4392;BME280;2210;51.938;8.488;2024-02-26T11:36:36;99334.16;;;8.15;82.57
4392;BME280;2210;51.938;8.488;2024-02-26T11:40:38;99338.31;;;8.17;83.21
4392;BME280;2210;51.938;8.488;2024-02-26T11:44:40;99334.50;;;8.18;82.52
4392;BME280;2210;51.938;8.488;2024-02-26T11:48:41;99334.81;;;8.22;83.96
4392;BME280;2210;51.938;8.488;2024-02-26T11:53:20;99333.47;;;8.24;82.65
4392;BME280;2210;51.938;8.488;2024-02-26T11:57:39;99322.41;;;8.36;82.33
4392;BME280;2210;51.938;8.488;2024-02-26T12:01:40;99327.72;;;8.43;83.21
4392;BME280;2210;51.938;8.488;2024-02-26T12:05:41;99333.13;;;8.55;84.40
4392;BME280;2210;51.938;8.488;2024-02-26T12:09:42;99343.94;;;8.62;83.52
4392;BME280;2210;51.938;8.488;2024-02-26T12:13:47;99343.59;;;8.58;81.74
4392;BME280;2210;51.938;8.488;2024-02-26T12:17:49;99350.78;;;8.59;83.23
4392;BME280;2210;51.938;8.488;2024-02-26T12:21:52;99353.59;;;8.64;83.28
4392;BME280;2210;51.938;8.488;2024-02-26T12:25:59;99349.09;;;8.58;82.76
4392;BME280;2210;51.938;8.488;2024-02-26T12:30:00;99348.28;;;8.40;83.30
4392;BME280;2210;51.938;8.488;2024-02-26T12:34:00;99360.59;;;8.38;83.38
4392;BME280;2210;51.938;8.488;2024-02-26T12:38:01;99361.34;;;8.33;83.36
4392;BME280;2210;51.938;8.488;2024-02-26T12:42:04;99356.69;;;8.34;83.54
4392;BME280;2210;51.938;8.488;2024-02-26T12:46:07;99365.59;;;8.24;83.33
4392;BME280;2210;51.938;8.488;2024-02-26T12:50:08;99374.59;;;8.19;82.37
4392;BME280;2210;51.938;8.488;2024-02-26T12:54:09;99371.66;;;8.26;83.32
4392;BME280;2210;51.938;8.488;2024-02-26T12:58:11;99387.47;;;8.19;83.02
4392;BME280;2210;51.938;8.488;2024-02-26T13:02:12;99379.91;;;8.09;83.21
4392;BME280;2210;51.938;8.488;2024-02-26T13:06:12;99381.50;;;8.05;84.54
4392;BME280;2210;51.938;8.488;2024-02-26T13:10:13;99383.75;;;7.91;84.11
4392;BME280;2210;51.938;8.488;2024-02-26T13:14:20;99393.47;;;7.82;84.18
4392;BME280;2210;51.938;8.488;2024-02-26T13:18:21;99400.53;;;7.78;84.06
4392;BME280;2210;51.938;8.488;2024-02-26T13:22:21;99402.19;;;7.79;83.83
4392;BME280;2210;51.938;8.488;2024-02-26T13:26:22;99415.31;;;7.76;84.08
4392;BME280;2210;51.938;8.488;2024-02-26T13:30:27;99401.38;;;7.66;82.95
4392;BME280;2210;51.938;8.488;2024-02-26T13:34:28;99394.47;;;7.64;82.55
4392;BME280;2210;51.938;8.488;2024-02-26T13:38:30;99391.06;;;7.56;81.71
4392;BME280;2210;51.938;8.488;2024-02-26T13:42:30;99401.78;;;7.58;83.52
4392;BME280;2210;51.938;8.488;2024-02-26T13:46:30;99403.47;;;7.59;83.05
4392;BME280;2210;51.938;8.488;2024-02-26T13:50:31;99421.75;;;7.53;82.76
4392;BME280;2210;51.938;8.488;2024-02-26T13:54:31;99431.63;;;7.54;82.86
4392;BME280;2210;51.938;8.488;2024-02-26T13:58:32;99440.13;;;7.53;83.70
4392;BME280;2210;51.938;8.488;2024-02-26T14:02:32;99451.31;;;7.51;83.41
4392;BME280;2210;51.938;8.488;2024-02-26T14:06:36;99448.81;;;7.50;83.42
4392;BME280;2210;51.938;8.488;2024-02-26T14:10:36;99462.06;;;7.53;84.01
4392;BME280;2210;51.938;8.488;2024-02-26T14:14:37;99460.50;;;7.57;83.47
4392;BME280;2210;51.938;8.488;2024-02-26T14:18:39;99467.03;;;7.56;83.16
4392;BME280;2210;51.938;8.488;2024-02-26T14:22:40;99477.16;;;7.55;83.22
4392;BME280;2210;51.938;8.488;2024-02-26T14:26:42;99477.53;;;7.59;83.74
4392;BME280;2210;51.938;8.488;2024-02-26T14:30:42;99474.53;;;7.60;84.19
4392;BME280;2210;51.938;8.488;2024-02-26T14:34:44;99488.25;;;7.60;84.10
4392;BME280;2210;51.938;8.488;2024-02-26T14:38:44;99485.00;;;7.64;83.88
4392;BME280;2210;51.938;8.488;2024-02-26T14:42:44;99485.84;;;7.64;85.07
4392;BME280;2210;51.938;8.488;2024-02-26T14:46:45;99492.41;;;7.63;85.49
4392;BME280;2210;51.938;8.488;2024-02-26T14:50:45;99494.09;;;7.64;85.24
4392;BME280;2210;51.938;8.488;2024-02-26T14:54:45;99493.00;;;7.65;84.95
4392;BME280;2210;51.938;8.488;2024-02-26T14:58:45;99505.06;;;7.64;86.69
4392;BME280;2210;51.938;8.488;2024-02-26T15:02:46;99506.13;;;7.63;86.82
4392;BME280;2210;51.938;8.488;2024-02-26T15:06:46;99525.81;;;7.60;88.00
4392;BME280;2210;51.938;8.488;2024-02-26T15:10:47;99525.81;;;7.60;88.88
4392;BME280;2210;51.938;8.488;2024-02-26T15:14:51;99529.63;;;7.59;89.38
4392;BME280;2210;51.938;8.488;2024-02-26T15:18:51;99542.78;;;7.57;90.18
4392;BME280;2210;51.938;8.488;2024-02-26T15:22:51;99530.63;;;7.53;90.32
4392;BME280;2210;51.938;8.488;2024-02-26T15:26:51;99537.75;;;7.54;91.88
4392;BME280;2210;51.938;8.488;2024-02-26T15:30:51;99551.72;;;7.52;92.15
4392;BME280;2210;51.938;8.488;2024-02-26T15:34:53;99546.72;;;7.49;91.92
4392;BME280;2210;51.938;8.488;2024-02-26T15:38:53;99557.69;;;7.49;91.87
4392;BME280;2210;51.938;8.488;2024-02-26T15:42:53;99556.84;;;7.49;91.51
4392;BME280;2210;51.938;8.488;2024-02-26T15:46:54;99560.91;;;7.46;90.60
4392;BME280;2210;51.938;8.488;2024-02-26T15:50:54;99555.75;;;7.50;90.66
4392;BME280;2210;51.938;8.488;2024-02-26T15:54:54;99562.31;;;7.49;89.81
4392;BME280;2210;51.938;8.488;2024-02-26T15:58:54;99554.44;;;7.52;88.39
4392;BME280;2210;51.938;8.488;2024-02-26T16:02:55;99560.53;;;7.54;88.46
4392;BME280;2210;51.938;8.488;2024-02-26T16:06:58;99566.84;;;7.55;87.98
4392;BME280;2210;51.938;8.488;2024-02-26T16:11:01;99561.97;;;7.57;87.62
4392;BME280;2210;51.938;8.488;2024-02-26T16:15:01;99573.53;;;7.59;87.05
4392;BME280;2210;51.938;8.488;2024-02-26T16:19:08;99585.09;;;7.61;86.95
4392;BME280;2210;51.938;8.488;2024-02-26T16:23:09;99588.91;;;7.60;87.48
4392;BME280;2210;51.938;8.488;2024-02-26T16:27:09;99592.22;;;7.62;86.97
4392;BME280;2210;51.938;8.488;2024-02-26T16:31:09;99601.06;;;7.64;86.30
4392;BME280;2210;51.938;8.488;2024-02-26T16:35:09;99600.59;;;7.67;84.96
4392;BME280;2210;51.938;8.488;2024-02-26T16:39:14;99607.63;;;7.63;85.65
4392;BME280;2210;51.938;8.488;2024-02-26T16:43:14;99620.28;;;7.64;84.87
4392;BME280;2210;51.938;8.488;2024-02-26T16:47:14;99616.94;;;7.62;84.95
4392;BME280;2210;51.938;8.488;2024-02-26T16:51:14;99628.38;;;7.59;84.91
4392;BME280;2210;51.938;8.488;2024-02-26T16:55:15;99649.50;;;7.58;84.95
4392;BME280;2210;51.938;8.488;2024-02-26T16:59:15;99643.66;;;7.55;85.30
4392;BME280;2210;51.938;8.488;2024-02-26T17:03:16;99657.50;;;7.60;84.22
4392;BME280;2210;51.938;8.488;2024-02-26T17:07:16;99662.13;;;7.59;84.55
4392;BME280;2210;51.938;8.488;2024-02-26T17:11:17;99660.72;;;7.57;84.20
4392;BME280;2210;51.938;8.488;2024-02-26T17:15:17;99673.59;;;7.56;84.07
4392;BME280;2210;51.938;8.488;2024-02-26T17:19:18;99681.22;;;7.54;83.70
4392;BME280;2210;51.938;8.488;2024-02-26T17:23:18;99700.88;;;7.51;84.33
4392;BME280;2210;51.938;8.488;2024-02-26T17:27:18;99708.53;;;7.49;84.83
4392;BME280;2210;51.938;8.488;2024-02-26T17:31:19;99712.56;;;7.47;85.19
4392;BME280;2210;51.938;8.488;2024-02-26T17:35:20;99728.22;;;7.46;84.93
4392;BME280;2210;51.938;8.488;2024-02-26T17:39:20;99725.81;;;7.50;84.65
4392;BME280;2210;51.938;8.488;2024-02-26T17:43:21;99734.03;;;7.50;83.98
4392;BME280;2210;51.938;8.488;2024-02-26T17:47:21;99755.41;;;7.48;84.94
4392;BME280;2210;51.938;8.488;2024-02-26T17:51:21;99756.59;;;7.52;83.96
4392;BME280;2210;51.938;8.488;2024-02-26T17:55:22;99776.84;;;7.51;84.32
4392;BME280;2210;51.938;8.488;2024-02-26T17:59:22;99785.56;;;7.48;84.34
4392;BME280;2210;51.938;8.488;2024-02-26T18:03:23;99783.16;;;7.51;83.62
4392;BME280;2210;51.938;8.488;2024-02-26T18:07:23;99792.50;;;7.50;83.82
4392;BME280;2210;51.938;8.488;2024-02-26T18:11:23;99794.13;;;7.51;83.05
4392;BME280;2210;51.938;8.488;2024-02-26T18:15:27;99806.56;;;7.54;82.33
4392;BME280;2210;51.938;8.488;2024-02-26T18:19:27;99811.22;;;7.53;82.24
4392;BME280;2210;51.938;8.488;2024-02-26T18:23:27;99816.31;;;7.50;83.05
4392;BME280;2210;51.938;8.488;2024-02-26T18:27:28;99827.53;;;7.48;82.66
4392;BME280;2210;51.938;8.488;2024-02-26T18:31:28;99835.06;;;7.53;81.93
4392;BME280;2210;51.938;8.488;2024-02-26T18:35:28;99850.44;;;7.54;81.68
4392;BME280;2210;51.938;8.488;2024-02-26T18:39:29;99851.38;;;7.48;82.04
4392;BME280;2210;51.938;8.488;2024-02-26T18:43:29;99853.66;;;7.51;81.42
4392;BME280;2210;51.938;8.488;2024-02-26T18:47:34;99858.09;;;7.52;81.41
4392;BME280;2210;51.938;8.488;2024-02-26T18:51:34;99871.78;;;7.52;80.89
4392;BME280;2210;51.938;8.488;2024-02-26T18:55:35;99873.91;;;7.50;80.85
4392;BME280;2210;51.938;8.488;2024-02-26T18:59:36;99887.88;;;7.48;81.33
4392;BME280;2210;51.938;8.488;2024-02-26T19:03:36;99890.22;;;7.45;82.01
4392;BME280;2210;51.938;8.488;2024-02-26T19:07:37;99902.75;;;7.40;82.37
4392;BME280;2210;51.938;8.488;2024-02-26T19:11:37;99909.91;;;7.41;81.47
4392;BME280;2210;51.938;8.488;2024-02-26T19:15:40;99920.28;;;7.39;82.03
4392;BME280;2210;51.938;8.488;2024-02-26T19:19:41;99926.22;;;7.36;82.49
4392;BME280;2210;51.938;8.488;2024-02-26T19:23:41;99919.66;;;7.37;83.07
4392;BME280;2210;51.938;8.488;2024-02-26T19:27:43;99940.38;;;7.33;83.45
4392;BME280;2210;51.938;8.488;2024-02-26T19:31:43;99954.94;;;7.34;84.08
4392;BME280;2210;51.938;8.488;2024-02-26T19:35:43;99959.59;;;7.33;84.45
4392;BME280;2210;51.938;8.488;2024-02-26T19:39:48;99955.78;;;7.34;84.47
4392;BME280;2210;51.938;8.488;2024-02-26T19:43:48;99964.25;;;7.33;84.55
4392;BME280;2210;51.938;8.488;2024-02-26T19:47:48;99972.09;;;7.29;84.93
4392;BME280;2210;51.938;8.488;2024-02-26T19:51:48;99979.91;;;7.25;85.69
4392;BME280;2210;51.938;8.488;2024-02-26T19:55:49;99978.03;;;7.26;86.66
4392;BME280;2210;51.938;8.488;2024-02-26T19:59:49;99989.66;;;7.21;87.43
4392;BME280;2210;51.938;8.488;2024-02-26T20:03:50;100000.28;;;7.18;87.89
4392;BME280;2210;51.938;8.488;2024-02-26T20:07:50;99999.41;;;7.17;87.99
4392;BME280;2210;51.938;8.488;2024-02-26T20:11:52;100015.03;;;7.17;88.89
4392;BME280;2210;51.938;8.488;2024-02-26T20:15:52;100020.34;;;7.12;90.05
4392;BME280;2210;51.938;8.488;2024-02-26T20:19:52;100019.75;;;7.09;90.24
4392;BME280;2210;51.938;8.488;2024-02-26T20:23:57;100031.78;;;7.08;90.92
4392;BME280;2210;51.938;8.488;2024-02-26T20:27:57;100036.03;;;7.04;92.13
4392;BME280;2210;51.938;8.488;2024-02-26T20:32:00;100038.78;;;7.04;92.35
4392;BME280;2210;51.938;8.488;2024-02-26T20:36:01;100042.59;;;7.03;92.94
4392;BME280;2210;51.938;8.488;2024-02-26T20:40:04;100044.94;;;7.00;93.63
4392;BME280;2210;51.938;8.488;2024-02-26T20:44:09;100046.00;;;6.99;94.23
4392;BME280;2210;51.938;8.488;2024-02-26T20:48:09;100059.09;;;6.97;95.80
4392;BME280;2210;51.938;8.488;2024-02-26T20:52:09;100064.63;;;6.90;96.58
4392;BME280;2210;51.938;8.488;2024-02-26T20:56:10;100078.16;;;6.85;97.72
4392;BME280;2210;51.938;8.488;2024-02-26T21:00:10;100086.59;;;6.83;98.61
4392;BME280;2210;51.938;8.488;2024-02-26T21:04:11;100087.88;;;6.81;99.36
4392;BME280;2210;51.938;8.488;2024-02-26T21:08:12;100097.63;;;6.77;100.00
4392;BME280;2210;51.938;8.488;2024-02-26T21:12:12;100100.81;;;6.73;100.00
4392;BME280;2210;51.938;8.488;2024-02-26T21:16:12;100105.88;;;6.70;100.00
4392;BME280;2210;51.938;8.488;2024-02-26T21:20:12;100102.16;;;6.64;100.00
4392;BME280;2210;51.938;8.488;2024-02-26T21:24:14;100109.13;;;6.60;100.00
4392;BME280;2210;51.938;8.488;2024-02-26T21:28:15;100116.75;;;6.58;100.00
4392;BME280;2210;51.938;8.488;2024-02-26T21:32:15;100125.16;;;6.56;100.00
4392;BME280;2210;51.938;8.488;2024-02-26T21:36:16;100129.19;;;6.54;100.00
4392;BME280;2210;51.938;8.488;2024-02-26T21:40:17;100145.44;;;6.49;100.00
4392;BME280;2210;51.938;8.488;2024-02-26T21:44:17;100149.69;;;6.45;100.00
4392;BME280;2210;51.938;8.488;2024-02-26T21:48:18;100152.25;;;6.39;100.00
4392;BME280;2210;51.938;8.488;2024-02-26T21:52:18;100156.25;;;6.37;100.00
4392;BME280;2210;51.938;8.488;2024-02-26T21:56:18;100163.00;;;6.34;100.00
4392;BME280;2210;51.938;8.488;2024-02-26T22:00:21;100167.88;;;6.32;100.00
4392;BME280;2210;51.938;8.488;2024-02-26T22:04:22;100171.66;;;6.31;100.00